createdAt,value
2018-07-16T00:01:46.548Z,49.50
2018-07-16T00:04:13.374Z,49.50
2018-07-16T00:06:40.186Z,49.50
2018-07-16T00:09:07.015Z,49.50
2018-07-16T00:11:34.037Z,49.50
2018-07-16T00:14:00.866Z,49.50
2018-07-16T00:16:27.698Z,49.40
2018-07-16T00:18:54.523Z,50.10
2018-07-16T00:21:21.398Z,49.50
2018-07-16T00:23:48.251Z,49.50
2018-07-16T00:26:15.074Z,49.50
2018-07-16T00:28:41.902Z,49.50
2018-07-16T00:31:08.776Z,49.50
2018-07-16T00:33:35.599Z,49.50
2018-07-16T00:36:02.430Z,49.50
2018-07-16T00:38:29.250Z,49.50
2018-07-16T00:40:56.241Z,49.50
2018-07-16T00:43:23.073Z,49.50
2018-07-16T00:45:49.907Z,49.50
2018-07-16T00:48:16.757Z,49.50
2018-07-16T00:50:43.821Z,49.50
2018-07-16T00:53:10.784Z,49.50
2018-07-16T00:55:37.614Z,49.50
2018-07-16T00:58:04.435Z,49.50
2018-07-16T01:00:31.296Z,49.50
2018-07-16T01:02:58.130Z,49.50
2018-07-16T01:05:24.958Z,49.50
2018-07-16T01:07:51.776Z,49.50
2018-07-16T01:10:18.678Z,49.50
2018-07-16T01:12:45.516Z,49.50
2018-07-16T01:15:12.354Z,50.10
2018-07-16T01:17:39.178Z,49.60
2018-07-16T01:20:06.037Z,49.50
2018-07-16T01:22:32.881Z,50.20
2018-07-16T01:24:59.717Z,49.50
2018-07-16T01:27:26.532Z,49.50
2018-07-16T01:29:53.421Z,49.50
2018-07-16T01:32:20.253Z,49.50
2018-07-16T01:34:47.073Z,49.50
2018-07-16T01:37:13.910Z,49.50
2018-07-16T01:39:40.741Z,49.50
2018-07-16T01:42:07.576Z,49.50
2018-07-16T01:44:34.387Z,49.50
2018-07-16T01:47:01.212Z,49.50
2018-07-16T01:49:28.092Z,49.50
2018-07-16T01:51:54.908Z,49.50
2018-07-16T01:54:21.732Z,49.50
2018-07-16T01:56:48.584Z,49.50
2018-07-16T01:59:15.399Z,49.50
2018-07-16T02:01:42.390Z,49.50
2018-07-16T02:04:09.224Z,49.50
2018-07-16T02:06:36.055Z,49.50
2018-07-16T02:09:02.878Z,49.50
2018-07-16T02:11:29.750Z,49.50
2018-07-16T02:13:56.576Z,49.60
2018-07-16T02:16:23.401Z,49.50
2018-07-16T02:18:50.229Z,49.50
2018-07-16T02:21:17.120Z,49.60
2018-07-16T02:23:43.952Z,49.60
2018-07-16T02:26:10.769Z,49.60
2018-07-16T02:28:37.597Z,49.60
2018-07-16T02:31:04.486Z,49.60
2018-07-16T02:33:31.316Z,49.60
2018-07-16T02:35:58.143Z,49.60
2018-07-16T02:38:24.963Z,49.60
2018-07-16T02:40:51.870Z,49.60
2018-07-16T02:43:18.685Z,49.60
2018-07-16T02:45:45.513Z,49.60
2018-07-16T02:48:12.366Z,49.60
2018-07-16T02:50:39.252Z,49.60
2018-07-16T02:53:06.083Z,49.60
2018-07-16T02:55:32.904Z,49.70
2018-07-16T02:57:59.725Z,49.70
2018-07-16T03:00:26.591Z,49.60
2018-07-16T03:02:53.431Z,49.60
2018-07-16T03:05:20.242Z,49.60
2018-07-16T03:07:47.071Z,49.60
2018-07-16T03:10:13.978Z,49.60
2018-07-16T03:12:40.814Z,49.60
2018-07-16T03:15:07.642Z,49.60
2018-07-16T03:17:34.488Z,49.60
2018-07-16T03:20:01.410Z,49.70
2018-07-16T03:22:28.238Z,49.70
2018-07-16T03:24:55.046Z,49.60
2018-07-16T03:27:21.874Z,49.60
2018-07-16T03:29:48.719Z,49.70
2018-07-16T03:32:15.944Z,49.70
2018-07-16T03:34:42.762Z,49.80
2018-07-16T03:37:09.582Z,49.70
2018-07-16T03:39:36.399Z,49.50
2018-07-16T03:42:03.226Z,49.60
2018-07-16T03:44:30.045Z,49.60
2018-07-16T03:46:56.878Z,49.80
2018-07-16T03:49:23.882Z,49.80
2018-07-16T03:51:50.700Z,49.90
2018-07-16T03:54:17.556Z,50.00
2018-07-16T03:56:44.350Z,50.10
2018-07-16T03:59:11.188Z,49.30
2018-07-16T04:01:38.116Z,49.60
2018-07-16T04:04:04.946Z,50.10
2018-07-16T04:06:31.775Z,50.40
2018-07-16T04:08:58.600Z,50.90
2018-07-16T04:11:25.458Z,50.90
2018-07-16T04:13:52.301Z,50.70
2018-07-16T04:16:19.129Z,51.10
2018-07-16T04:18:45.963Z,51.50
2018-07-16T04:21:12.916Z,51.30
2018-07-16T04:23:39.761Z,50.90
2018-07-16T04:26:06.583Z,50.80
2018-07-16T04:28:33.402Z,51.00
2018-07-16T04:31:00.479Z,51.20
2018-07-16T04:33:27.223Z,51.20
2018-07-16T04:35:54.043Z,51.80
2018-07-16T04:38:20.864Z,51.90
2018-07-16T04:40:47.775Z,51.80
2018-07-16T04:43:14.607Z,51.60
2018-07-16T04:45:41.421Z,51.50
2018-07-16T04:48:08.261Z,51.70
2018-07-16T04:50:35.140Z,51.80
2018-07-16T04:53:01.996Z,51.90
2018-07-16T04:55:28.817Z,51.90
2018-07-16T04:57:55.653Z,52.00
2018-07-16T05:00:22.522Z,52.30
2018-07-16T05:02:49.351Z,52.20
2018-07-16T05:05:16.198Z,52.30
2018-07-16T05:07:43.027Z,52.40
2018-07-16T05:10:09.893Z,52.50
2018-07-16T05:12:36.722Z,52.80
2018-07-16T05:15:03.557Z,52.50
2018-07-16T05:17:30.407Z,52.10
2018-07-16T05:19:57.273Z,51.90
2018-07-16T05:22:24.097Z,52.10
2018-07-16T05:24:50.930Z,52.10
2018-07-16T05:27:17.767Z,52.10
2018-07-16T05:29:44.628Z,52.30
2018-07-16T05:32:11.831Z,52.20
2018-07-16T05:34:38.614Z,52.40
2018-07-16T05:37:05.464Z,52.70
2018-07-16T05:39:32.346Z,52.60
2018-07-16T05:41:59.157Z,52.40
2018-07-16T05:44:26.006Z,52.30
2018-07-16T05:46:52.833Z,52.80
2018-07-16T05:49:19.704Z,53.30
2018-07-16T05:56:40.811Z,53.00
2018-07-16T05:59:08.503Z,53.00
2018-07-16T06:01:35.453Z,53.10
2018-07-16T06:04:02.287Z,53.00
2018-07-16T06:06:29.157Z,52.90
2018-07-16T06:08:55.985Z,52.90
2018-07-16T06:11:23.007Z,52.90
2018-07-16T06:13:49.834Z,52.70
2018-07-16T06:16:16.666Z,52.90
2018-07-16T06:18:43.490Z,52.80
2018-07-16T06:21:10.414Z,52.70
2018-07-16T06:23:37.230Z,52.70
2018-07-16T06:26:04.056Z,52.40
2018-07-16T06:28:30.877Z,52.40
2018-07-16T06:30:57.768Z,52.30
2018-07-16T06:33:24.672Z,52.20
2018-07-16T06:35:51.558Z,52.10
2018-07-16T06:40:46.540Z,52.00
2018-07-16T06:43:13.848Z,51.60
2018-07-16T06:45:40.837Z,51.70
2018-07-16T06:48:07.658Z,51.70
2018-07-16T06:50:34.555Z,51.60
2018-07-16T06:53:01.378Z,51.50
2018-07-16T06:55:28.289Z,51.50
2018-07-16T06:57:55.262Z,51.40
2018-07-16T07:00:22.115Z,51.40
2018-07-16T07:02:48.961Z,51.30
2018-07-16T07:05:16.545Z,51.20
2018-07-16T07:07:43.472Z,51.20
2018-07-16T07:10:10.410Z,51.20
2018-07-16T07:12:37.365Z,51.10
2018-07-16T07:15:04.190Z,51.20
2018-07-16T07:17:31.037Z,51.10
2018-07-16T07:19:57.910Z,51.20
2018-07-16T07:22:24.728Z,51.20
2018-07-16T07:24:51.598Z,51.10
2018-07-16T07:27:18.431Z,51.10
2018-07-16T07:29:45.268Z,51.10
2018-07-16T07:32:12.994Z,51.10
2018-07-16T07:34:39.932Z,51.10
2018-07-16T07:37:07.497Z,51.10
2018-07-16T07:39:34.556Z,51.00
2018-07-16T07:42:01.737Z,51.00
2018-07-16T07:44:28.778Z,51.00
2018-07-16T07:46:55.600Z,51.10
2018-07-16T07:49:22.429Z,51.10
2018-07-16T07:51:49.257Z,51.10
2018-07-16T07:54:16.155Z,51.00
2018-07-16T07:56:42.910Z,50.90
2018-07-16T07:59:09.768Z,51.50
2018-07-16T08:01:36.683Z,50.80
2018-07-16T08:04:03.507Z,50.90
2018-07-16T08:06:30.342Z,50.90
2018-07-16T08:08:57.173Z,50.90
2018-07-16T08:11:24.038Z,50.90
2018-07-16T08:13:50.970Z,50.80
2018-07-16T08:16:17.745Z,51.00
2018-07-16T08:18:44.634Z,50.50
2018-07-16T08:21:11.873Z,50.60
2018-07-16T08:23:38.692Z,50.90
2018-07-16T08:26:05.505Z,50.60
2018-07-16T08:28:32.351Z,50.40
2018-07-16T08:30:59.204Z,50.40
2018-07-16T08:33:26.030Z,50.40
2018-07-16T08:35:52.985Z,50.60
2018-07-16T08:38:19.818Z,50.40
2018-07-16T08:40:46.779Z,50.50
2018-07-16T08:43:13.631Z,50.20
2018-07-16T08:45:41.081Z,50.30
2018-07-16T08:48:07.908Z,50.90
2018-07-16T08:50:34.758Z,51.50
2018-07-16T08:53:01.597Z,51.30
2018-07-16T08:55:28.430Z,51.00
2018-07-16T08:57:55.257Z,51.00
2018-07-16T09:00:22.125Z,51.00
2018-07-16T09:02:48.952Z,50.80
2018-07-16T09:05:15.853Z,50.80
2018-07-16T09:07:42.656Z,51.00
2018-07-16T09:10:09.511Z,50.80
2018-07-16T09:12:36.361Z,50.80
2018-07-16T09:15:03.344Z,50.70
2018-07-16T09:17:30.198Z,50.80
2018-07-16T09:19:57.213Z,50.90
2018-07-16T09:22:24.063Z,50.60
2018-07-16T09:24:51.012Z,50.60
2018-07-16T09:27:17.888Z,50.60
2018-07-16T09:29:44.949Z,50.70
2018-07-16T09:32:12.207Z,51.10
2018-07-16T09:34:39.169Z,51.20
2018-07-16T09:37:06.036Z,50.20
2018-07-16T09:39:32.914Z,49.30
2018-07-16T09:41:59.802Z,49.70
2018-07-16T09:44:26.680Z,49.80
2018-07-16T09:46:54.641Z,50.00
2018-07-16T09:49:21.530Z,50.10
2018-07-16T09:51:48.410Z,50.20
2018-07-16T09:54:15.313Z,50.10
2018-07-16T09:56:42.178Z,49.70
2018-07-16T09:59:09.076Z,50.30
2018-07-16T10:01:36.165Z,49.20
2018-07-16T10:04:03.060Z,49.50
2018-07-16T10:06:30.027Z,49.30
2018-07-16T10:08:56.857Z,49.60
2018-07-16T10:11:23.908Z,50.00
2018-07-16T10:13:50.899Z,49.00
2018-07-16T10:16:17.820Z,49.20
2018-07-16T10:18:44.693Z,49.40
2018-07-16T10:21:11.783Z,49.40
2018-07-16T10:23:38.682Z,49.30
2018-07-16T10:26:05.557Z,49.10
2018-07-16T10:28:32.447Z,49.30
2018-07-16T10:30:59.525Z,49.40
2018-07-16T10:33:26.445Z,49.30
2018-07-16T10:35:53.354Z,49.30
2018-07-16T10:38:20.237Z,49.30
2018-07-16T10:40:47.260Z,49.70
2018-07-16T10:43:14.084Z,49.90
2018-07-16T10:45:40.947Z,49.90
2018-07-16T10:48:07.883Z,49.90
2018-07-16T10:50:34.812Z,49.80
2018-07-16T10:53:01.727Z,50.20
2018-07-16T10:55:28.571Z,50.40
2018-07-16T10:57:55.408Z,50.90
2018-07-16T11:00:22.353Z,50.10
2018-07-16T11:02:49.177Z,50.00
2018-07-16T11:05:16.034Z,50.10
2018-07-16T11:07:42.866Z,50.10
2018-07-16T11:10:09.931Z,50.20
2018-07-16T11:12:36.754Z,50.20
2018-07-16T11:15:03.626Z,50.10
2018-07-16T11:17:30.406Z,50.20
2018-07-16T11:19:57.297Z,50.20
2018-07-16T11:22:24.131Z,50.20
2018-07-16T11:24:50.990Z,50.10
2018-07-16T11:27:17.802Z,50.10
2018-07-16T11:29:44.672Z,50.10
2018-07-16T11:32:11.518Z,50.10
2018-07-16T11:34:38.334Z,50.00
2018-07-16T11:37:05.232Z,50.00
2018-07-16T11:39:32.047Z,49.30
2018-07-16T11:41:58.863Z,49.10
2018-07-16T11:44:25.696Z,48.90
2018-07-16T11:46:52.542Z,48.70
2018-07-16T11:49:19.405Z,48.60
2018-07-16T11:51:46.253Z,48.60
2018-07-16T11:54:13.120Z,47.80
2018-07-16T11:56:39.933Z,48.00
2018-07-16T11:59:06.751Z,48.10
2018-07-16T12:01:33.638Z,48.20
2018-07-16T12:04:00.490Z,48.50
2018-07-16T12:06:27.311Z,48.30
2018-07-16T12:08:54.143Z,48.60
2018-07-16T12:11:21.055Z,48.20
2018-07-16T12:13:47.864Z,48.20
2018-07-16T12:16:14.691Z,48.30
2018-07-16T12:18:41.540Z,48.00
2018-07-16T12:21:08.572Z,47.80
2018-07-16T12:23:35.384Z,47.30
2018-07-16T12:26:02.259Z,47.80
2018-07-16T12:28:29.031Z,47.50
2018-07-16T12:30:55.940Z,47.90
2018-07-16T12:33:22.768Z,46.90
2018-07-16T12:35:49.622Z,47.30
2018-07-16T12:38:16.440Z,47.30
2018-07-16T12:40:43.321Z,47.50
2018-07-16T12:43:10.160Z,47.50
2018-07-16T12:45:36.983Z,47.80
2018-07-16T12:48:03.851Z,47.70
2018-07-16T12:50:30.690Z,47.40
2018-07-16T12:52:57.506Z,47.20
2018-07-16T12:55:24.393Z,47.40
2018-07-16T12:57:51.157Z,46.50
2018-07-16T13:00:18.064Z,46.20
2018-07-16T13:02:44.889Z,44.90
2018-07-16T13:05:11.723Z,45.60
2018-07-16T13:07:38.541Z,46.20
2018-07-16T13:10:05.518Z,46.50
2018-07-16T13:12:32.375Z,46.60
2018-07-16T13:14:59.203Z,45.90
2018-07-16T13:17:26.601Z,45.80
2018-07-16T13:19:53.618Z,46.70
2018-07-16T13:22:20.443Z,46.00
2018-07-16T13:24:47.270Z,46.70
2018-07-16T13:27:14.097Z,45.10
2018-07-16T13:29:41.034Z,45.60
2018-07-16T13:32:07.815Z,46.10
2018-07-16T13:34:34.640Z,46.50
2018-07-16T13:37:01.531Z,46.60
2018-07-16T13:39:28.276Z,46.40
2018-07-16T13:41:55.101Z,45.70
2018-07-16T13:44:21.940Z,45.70
2018-07-16T13:46:48.959Z,46.30
2018-07-16T13:49:15.783Z,46.20
2018-07-16T13:51:42.603Z,44.90
2018-07-16T13:54:09.609Z,45.00
2018-07-16T13:56:36.412Z,45.80
2018-07-16T13:59:03.231Z,45.40
2018-07-16T14:01:30.199Z,45.80
2018-07-16T14:03:57.012Z,45.40
2018-07-16T14:06:23.861Z,44.40
2018-07-16T14:08:51.108Z,44.70
2018-07-16T14:11:17.976Z,45.30
2018-07-16T14:13:44.775Z,45.40
2018-07-16T14:16:12.301Z,45.20
2018-07-16T14:18:39.131Z,45.30
2018-07-16T14:21:06.133Z,45.70
2018-07-16T14:23:33.001Z,45.60
2018-07-16T14:25:59.807Z,45.40
2018-07-16T14:28:26.634Z,44.40
2018-07-16T14:30:53.522Z,44.30
2018-07-16T14:33:20.350Z,43.50
2018-07-16T14:35:47.181Z,43.30
2018-07-16T14:38:14.005Z,43.70
2018-07-16T14:40:40.884Z,44.20
2018-07-16T14:43:07.717Z,44.90
2018-07-16T14:45:34.560Z,45.00
2018-07-16T14:48:01.441Z,43.70
2018-07-16T14:50:28.460Z,44.70
2018-07-16T14:52:55.291Z,44.30
2018-07-16T14:55:22.129Z,43.90
2018-07-16T14:57:48.976Z,42.50
2018-07-16T15:00:15.838Z,43.20
2018-07-16T15:02:42.660Z,43.60
2018-07-16T15:05:09.944Z,43.90
2018-07-16T15:07:36.725Z,44.00
2018-07-16T15:10:03.609Z,44.20
2018-07-16T15:12:30.439Z,44.30
2018-07-16T15:14:57.278Z,44.30
2018-07-16T15:17:24.377Z,43.70
2018-07-16T15:19:51.393Z,44.00
2018-07-16T15:22:23.594Z,44.60
2018-07-16T15:24:50.436Z,44.60
2018-07-16T15:27:17.234Z,44.80
2018-07-16T15:29:44.131Z,44.80
2018-07-16T15:32:10.922Z,44.80
2018-07-16T15:34:37.722Z,45.00
2018-07-16T15:37:04.546Z,45.00
2018-07-16T15:39:31.379Z,44.90
2018-07-16T15:41:58.193Z,44.50
2018-07-16T15:44:25.031Z,44.40
2018-07-16T15:46:51.878Z,44.40
2018-07-16T15:49:18.715Z,44.80
2018-07-16T15:51:45.534Z,44.80
2018-07-16T15:54:12.361Z,44.90
2018-07-16T15:56:39.223Z,44.50
2018-07-16T15:59:06.047Z,44.30
2018-07-16T16:01:33.038Z,44.50
2018-07-16T16:03:59.901Z,44.70
2018-07-16T16:06:26.724Z,44.80
2018-07-16T16:08:53.622Z,44.30
2018-07-16T16:11:20.449Z,44.10
2018-07-16T16:13:47.266Z,44.50
2018-07-16T16:16:14.134Z,44.60
2018-07-16T16:18:40.927Z,44.20
2018-07-16T16:21:07.782Z,43.60
2018-07-16T16:23:34.607Z,43.70
2018-07-16T16:26:01.458Z,43.90
2018-07-16T16:28:28.286Z,44.20
2018-07-16T16:30:55.155Z,44.50
2018-07-16T16:33:21.977Z,44.50
2018-07-16T16:35:48.798Z,44.50
2018-07-16T16:38:15.630Z,44.50
2018-07-16T16:40:42.531Z,44.50
2018-07-16T16:43:09.401Z,44.10
2018-07-16T16:45:36.194Z,44.40
2018-07-16T16:48:03.029Z,44.30
2018-07-16T16:50:29.898Z,44.80
2018-07-16T16:52:56.751Z,44.20
2018-07-16T16:55:23.541Z,44.00
2018-07-16T16:57:50.394Z,44.00
2018-07-16T17:00:17.306Z,44.30
2018-07-16T17:02:44.118Z,44.50
2018-07-16T17:05:11.466Z,44.70
2018-07-16T17:07:38.302Z,44.90
2018-07-16T17:10:05.274Z,44.40
2018-07-16T17:12:32.140Z,44.60
2018-07-16T17:14:58.983Z,44.60
2018-07-16T17:17:26.031Z,44.70
2018-07-16T17:19:52.835Z,45.00
2018-07-16T17:22:19.662Z,45.10
2018-07-16T17:24:46.508Z,45.10
2018-07-16T17:27:13.327Z,45.30
2018-07-16T17:29:40.199Z,45.40
2018-07-16T17:32:07.042Z,45.40
2018-07-16T17:34:33.892Z,45.40
2018-07-16T17:37:00.698Z,45.50
2018-07-16T17:39:27.530Z,45.60
2018-07-16T17:41:54.356Z,45.40
2018-07-16T17:44:21.189Z,45.60
2018-07-16T17:46:48.010Z,45.60
2018-07-16T17:49:14.868Z,45.60
2018-07-16T17:54:08.828Z,45.60
2018-07-16T17:56:35.679Z,45.60
2018-07-16T17:59:02.551Z,45.60
2018-07-16T18:01:29.561Z,45.80
2018-07-16T18:03:56.399Z,45.70
2018-07-16T18:06:23.248Z,45.70
2018-07-16T18:08:50.082Z,45.80
2018-07-16T18:11:16.941Z,45.70
2018-07-16T18:13:43.765Z,45.60
2018-07-16T18:16:10.599Z,45.50
2018-07-16T18:18:37.527Z,45.60
2018-07-16T18:21:04.565Z,45.70
2018-07-16T18:23:31.348Z,45.80
2018-07-16T18:25:58.192Z,45.80
2018-07-16T18:28:25.062Z,45.80
2018-07-16T18:30:51.886Z,45.90
2018-07-16T18:33:18.719Z,46.00
2018-07-16T18:35:45.541Z,45.90
2018-07-16T18:38:12.366Z,45.90
2018-07-16T18:40:39.258Z,45.90
2018-07-16T18:43:06.096Z,45.80
2018-07-16T18:45:33.005Z,45.90
2018-07-16T18:47:59.821Z,46.10
2018-07-16T18:50:26.853Z,45.90
2018-07-16T18:52:53.683Z,46.30
2018-07-16T18:55:20.592Z,46.40
2018-07-16T18:57:47.348Z,46.40
2018-07-16T19:00:14.226Z,46.10
2018-07-16T19:02:41.042Z,46.20
2018-07-16T19:05:07.875Z,47.20
2018-07-16T19:07:34.738Z,46.60
2018-07-16T19:10:01.801Z,46.90
2018-07-16T19:12:28.616Z,47.30
2018-07-16T19:14:55.518Z,47.30
2018-07-16T19:17:22.505Z,47.30
2018-07-16T19:19:49.379Z,47.50
2018-07-16T19:22:16.227Z,47.60
2018-07-16T19:24:43.049Z,48.20
2018-07-16T19:27:09.998Z,48.30
2018-07-16T19:29:36.963Z,48.40
2018-07-16T19:32:03.770Z,48.40
2018-07-16T19:34:30.599Z,48.40
2018-07-16T19:36:57.433Z,48.40
2018-07-16T19:39:24.270Z,48.40
2018-07-16T19:41:51.114Z,48.60
2018-07-16T19:44:17.953Z,48.60
2018-07-16T19:46:44.804Z,48.40
2018-07-16T19:49:11.626Z,48.60
2018-07-16T19:51:38.564Z,48.70
2018-07-16T19:54:05.381Z,48.80
2018-07-16T19:56:32.214Z,48.60
2018-07-16T19:58:59.070Z,48.80
2018-07-16T20:01:25.905Z,48.50
2018-07-16T20:03:52.767Z,48.20
2018-07-16T20:06:19.563Z,47.90
2018-07-16T20:08:46.391Z,47.60
2018-07-16T20:11:13.287Z,47.50
2018-07-16T20:13:41.060Z,47.60
2018-07-16T20:16:07.910Z,47.60
2018-07-16T20:18:34.746Z,47.70
2018-07-16T20:28:48.155Z,47.80
2018-07-16T20:31:15.047Z,47.90
2018-07-16T20:33:41.906Z,48.10
2018-07-16T20:36:08.795Z,48.10
2018-07-16T20:38:35.622Z,48.10
2018-07-16T20:41:02.614Z,48.00
2018-07-16T20:43:29.443Z,48.10
2018-07-16T20:45:56.265Z,48.20
2018-07-16T20:48:23.106Z,48.30
2018-07-16T20:50:49.997Z,48.30
2018-07-16T20:53:16.932Z,48.20
2018-07-16T20:55:43.756Z,48.40
2018-07-16T20:58:10.580Z,48.40
2018-07-16T21:00:37.573Z,48.30
2018-07-16T21:03:04.412Z,48.40
2018-07-16T21:05:31.452Z,48.40
2018-07-16T21:07:58.259Z,48.40
2018-07-16T21:10:25.154Z,48.50
2018-07-16T21:12:51.997Z,48.50
2018-07-16T21:15:18.867Z,48.60
2018-07-16T21:17:45.684Z,48.50
2018-07-16T21:20:12.534Z,48.50
2018-07-16T21:22:39.697Z,48.50
2018-07-16T21:25:06.695Z,48.50
2018-07-16T21:27:33.525Z,48.60
2018-07-16T21:30:00.504Z,48.70
2018-07-16T21:32:27.769Z,48.70
2018-07-16T21:34:54.604Z,48.70
2018-07-16T21:37:21.436Z,48.70
2018-07-16T21:39:48.287Z,48.60
2018-07-16T21:42:15.116Z,48.70
2018-07-16T21:44:42.637Z,48.70
2018-07-16T21:47:09.445Z,48.70
2018-07-16T21:49:36.476Z,48.60
2018-07-16T21:52:03.393Z,48.60
2018-07-16T21:54:30.349Z,48.60
2018-07-16T21:56:57.430Z,48.60
2018-07-16T21:59:24.235Z,48.70
2018-07-16T22:01:51.075Z,48.70
2018-07-16T22:04:17.905Z,48.70
2018-07-16T22:06:44.781Z,48.70
2018-07-16T22:09:11.609Z,48.60
2018-07-16T22:11:38.464Z,48.70
2018-07-16T22:14:05.343Z,48.60
2018-07-16T22:16:32.171Z,48.70
2018-07-16T22:18:58.987Z,48.60
2018-07-16T22:21:25.849Z,48.70
2018-07-16T22:23:52.677Z,48.70
2018-07-16T22:26:19.499Z,48.70
2018-07-16T22:28:46.679Z,48.70
2018-07-16T22:31:13.626Z,48.70
2018-07-16T22:33:40.443Z,48.70
2018-07-16T22:36:07.295Z,48.70
2018-07-16T22:38:34.178Z,48.70
2018-07-16T22:41:01.197Z,48.70
2018-07-16T22:43:28.028Z,48.70
2018-07-16T22:45:54.860Z,48.90
2018-07-16T22:48:21.684Z,48.80
2018-07-16T22:50:48.562Z,48.70
2018-07-16T22:53:15.415Z,48.70
2018-07-16T22:55:42.229Z,48.80
2018-07-16T22:58:09.078Z,48.70
2018-07-16T23:00:35.938Z,48.80
2018-07-16T23:03:02.764Z,48.90
2018-07-16T23:05:29.582Z,48.80
2018-07-16T23:07:56.409Z,48.70
2018-07-16T23:10:23.313Z,48.70
2018-07-16T23:12:50.140Z,48.70
2018-07-16T23:15:16.974Z,48.80
2018-07-16T23:17:43.798Z,48.80
2018-07-16T23:20:10.705Z,48.80
2018-07-16T23:22:37.531Z,48.80
2018-07-16T23:25:04.387Z,48.80
2018-07-16T23:27:31.246Z,48.70
2018-07-16T23:29:58.271Z,48.80
2018-07-16T23:32:25.140Z,48.90
2018-07-16T23:34:51.957Z,48.80
2018-07-16T23:37:18.807Z,48.80
2018-07-16T23:39:45.639Z,48.70
2018-07-16T23:42:12.463Z,48.80
2018-07-16T23:44:39.296Z,48.80
2018-07-16T23:47:06.322Z,48.90
2018-07-16T23:49:33.906Z,48.80
2018-07-16T23:52:00.739Z,48.90
2018-07-16T23:54:27.560Z,48.80
2018-07-16T23:56:54.397Z,48.90
2018-07-16T23:59:21.222Z,48.90
